Time;durP1;ratioP1;P1;durP2;ratioP2;P2;SDS_P1;SDS_P2;PMS_P1;PMS_P2;Temp;Humidity;BMP_temperature;BMP_pressure;BME280_temperature;BME280_humidity;BME280_pressure;Samples;Min_cycle;Max_cycle;Signal;HPM_P1;HPM_P2
2021/08/04 00:00:47;;;;;;;5.75;3.30;;;;;;;17.36;60.58;101116.66;4816402;28;121986;-76
2021/08/04 00:03:13;;;;;;;5.25;3.00;;;;;;;17.31;60.76;101120.88;4831737;28;119847;-77
2021/08/04 00:05:39;;;;;;;6.18;3.13;;;;;;;17.26;60.23;101120.78;4834425;28;119375;-77
2021/08/04 00:08:05;;;;;;;4.95;3.30;;;;;;;17.23;60.44;101124.53;4833308;28;120131;-77
2021/08/04 00:10:30;;;;;;;5.85;3.78;;;;;;;17.15;60.08;101121.44;4837453;28;119599;-77
2021/08/04 00:12:58;;;;;;;6.05;4.35;;;;;;;17.11;60.09;101121.66;4833685;28;120747;-77
2021/08/04 00:15:24;;;;;;;7.50;3.88;;;;;;;17.03;60.47;101125.31;4841505;28;119630;-76
2021/08/04 00:17:49;;;;;;;6.45;3.63;;;;;;;16.52;60.70;101043.50;4882236;23;120575;-93
2021/08/04 00:20:15;;;;;;;5.68;3.70;;;;;;;16.52;60.76;101054.59;4865288;28;122336;-93
2021/08/04 00:22:42;;;;;;;6.18;3.78;;;;;;;16.50;60.71;101059.84;4881590;28;118660;-94
2021/08/04 00:25:08;;;;;;;4.78;3.55;;;;;;;16.45;60.83;101057.75;4847185;28;121095;-93
2021/08/04 00:27:35;;;;;;;7.22;3.83;;;;;;;16.43;60.85;101055.47;4848670;28;122052;-94
2021/08/04 00:30:12;;;;;;;5.47;3.50;;;;;;;16.71;61.19;101102.97;4851736;28;118747;-96
2021/08/04 00:32:40;;;;;;;4.65;3.63;;;;;;;16.61;60.90;101098.78;4854583;28;119833;-94
2021/08/04 00:35:07;;;;;;;5.60;3.53;;;;;;;16.54;60.97;101090.84;4835659;28;118773;-94
2021/08/04 00:37:33;;;;;;;4.95;3.40;;;;;;;16.31;60.77;101058.53;4851050;28;121025;-93
2021/08/04 00:39:59;;;;;;;6.22;3.08;;;;;;;16.40;60.72;101075.81;4851193;28;122227;-96
2021/08/04 00:42:25;;;;;;;6.55;3.40;;;;;;;16.20;60.97;101057.16;4850858;28;118685;-95
2021/08/04 00:44:50;;;;;;;5.30;2.83;;;;;;;16.43;61.13;101094.25;4851538;28;120839;-94
2021/08/04 00:47:18;;;;;;;4.07;3.13;;;;;;;16.23;60.77;101064.50;4863896;28;121739;-94
2021/08/04 00:49:47;;;;;;;5.40;3.47;;;;;;;16.27;60.74;101073.34;4880892;28;118815;-95
2021/08/04 00:52:14;;;;;;;4.13;3.25;;;;;;;16.12;60.33;101055.25;4844599;28;122110;-93
2021/08/04 00:54:55;;;;;;;5.03;3.30;;;;;;;15.99;60.42;101052.03;4848162;28;122094;-94
2021/08/04 00:57:21;;;;;;;5.07;3.30;;;;;;;16.14;60.43;101086.00;4839802;28;122417;-95
2021/08/04 01:00:25;;;;;;;6.07;3.25;;;;;;;15.99;60.55;101068.63;4851528;28;121693;-94
2021/08/04 01:03:09;;;;;;;7.18;3.90;;;;;;;15.93;61.07;101066.53;4855984;28;118634;-93
2021/08/04 01:05:45;;;;;;;4.90;3.87;;;;;;;15.88;61.30;101058.16;4847492;28;120646;-94
2021/08/04 01:15:38;;;;;;;6.43;4.40;;;;;;;16.07;62.01;101102.97;4846700;28;121026;-95
2021/08/04 01:22:13;;;;;;;6.80;3.75;;;;;;;16.24;61.90;101132.44;4867203;28;118642;-95
2021/08/04 01:25:13;;;;;;;5.28;3.78;;;;;;;16.13;62.03;101117.69;4846441;28;121730;-95
2021/08/04 01:28:04;;;;;;;6.00;3.85;;;;;;;16.13;62.24;101123.22;4865206;28;120437;-94
2021/08/04 01:30:30;;;;;;;6.55;3.15;;;;;;;15.88;61.65;101077.53;4864999;28;120883;-93
2021/08/04 01:32:55;;;;;;;6.63;3.30;;;;;;;15.96;61.27;101098.78;4846033;28;121893;-95
2021/08/04 01:35:21;;;;;;;8.90;3.85;;;;;;;15.77;61.27;101069.78;4846771;28;119697;-94
2021/08/04 01:37:48;;;;;;;4.72;3.35;;;;;;;16.14;61.19;101130.28;4824334;23;123829;-72
2021/08/04 01:40:15;;;;;;;4.57;3.25;;;;;;;16.12;61.45;101141.06;4828689;28;119959;-72
2021/08/04 01:42:42;;;;;;;4.35;3.22;;;;;;;16.09;61.33;101136.44;4814706;28;125770;-72
2021/08/04 01:45:08;;;;;;;5.93;3.63;;;;;;;16.11;61.72;101136.75;4813737;29;119856;-72
2021/08/04 01:47:35;;;;;;;6.20;4.22;;;;;;;16.02;62.11;101134.06;4798935;28;119681;-72
2021/08/04 01:50:01;;;;;;;5.35;3.60;;;;;;;16.10;61.85;101129.69;4819736;28;119547;-72
2021/08/04 01:52:28;;;;;;;6.28;4.15;;;;;;;16.06;61.31;101129.09;4815156;28;120097;-72
2021/08/04 01:54:55;;;;;;;6.43;4.57;;;;;;;16.09;62.02;101128.16;4818747;29;120991;-72
2021/08/04 01:57:21;;;;;;;5.95;3.95;;;;;;;16.11;62.38;101128.47;4815837;29;119907;-72
2021/08/04 01:59:47;;;;;;;7.55;4.65;;;;;;;16.11;62.26;101128.47;4800439;29;119635;-72
2021/08/04 02:02:23;;;;;;;7.00;4.05;;;;;;;16.08;62.41;101124.63;4798562;28;119802;-72
2021/08/04 02:04:51;;;;;;;5.50;4.35;;;;;;;16.10;62.22;101118.63;4818371;28;119582;-72
2021/08/04 02:07:38;;;;;;;7.60;4.53;;;;;;;16.08;62.20;101127.38;4815053;29;119510;-72
2021/08/04 02:10:14;;;;;;;9.02;3.78;;;;;;;16.05;61.83;101124.81;4799317;28;119478;-72
2021/08/04 02:12:50;;;;;;;5.00;3.63;;;;;;;15.99;61.64;101121.19;4797691;29;120172;-72
2021/08/04 02:15:20;;;;;;;5.30;3.85;;;;;;;15.99;61.33;101121.19;4822203;28;119717;-72
2021/08/04 02:18:01;;;;;;;5.78;4.10;;;;;;;15.96;61.40;101120.91;4813427;29;119808;-72
2021/08/04 02:20:38;;;;;;;4.90;3.33;;;;;;;15.94;61.39;101125.41;4800609;29;126064;-73
2021/08/04 02:23:18;;;;;;;4.63;3.30;;;;;;;15.91;61.37;101116.06;4815128;28;119923;-72
2021/08/04 02:25:52;;;;;;;4.72;3.20;;;;;;;15.89;60.82;101115.00;4808002;28;119546;-72
2021/08/04 02:28:34;;;;;;;7.32;3.38;;;;;;;15.83;60.62;101125.94;4785803;29;122348;-72
2021/08/04 02:31:03;;;;;;;5.90;3.15;;;;;;;15.74;60.72;101106.69;4815260;29;121484;-72
2021/08/04 02:33:29;;;;;;;6.20;3.40;;;;;;;15.69;60.79;101115.66;4797732;28;122508;-72
2021/08/04 02:35:59;;;;;;;7.20;3.20;;;;;;;15.65;61.11;101112.31;4814303;28;119527;-72
2021/08/04 02:38:25;;;;;;;4.65;2.90;;;;;;;15.66;61.03;101119.38;4815843;28;121353;-73
2021/08/04 02:40:51;;;;;;;6.03;3.50;;;;;;;15.65;60.84;101120.59;4832200;28;119789;-72
2021/08/04 02:43:19;;;;;;;5.20;3.30;;;;;;;15.64;61.12;101121.84;4816062;29;119582;-72
2021/08/04 02:45:46;;;;;;;5.45;3.60;;;;;;;15.63;61.43;101131.38;4799974;28;119595;-72
2021/08/04 02:48:13;;;;;;;6.35;3.38;;;;;;;15.63;61.38;101125.84;4804199;28;120248;-72
2021/08/04 02:50:45;;;;;;;5.47;3.72;;;;;;;15.61;61.42;101129.09;4818892;28;119631;-72
2021/08/04 02:53:16;;;;;;;5.40;3.60;;;;;;;15.60;61.53;101126.78;4814951;28;120011;-72
2021/08/04 02:55:43;;;;;;;4.53;3.30;;;;;;;15.58;61.36;101132.78;4806607;28;120423;-72
2021/08/04 02:58:12;;;;;;;3.95;3.03;;;;;;;15.57;61.25;101134.00;4800555;29;120955;-72
2021/08/04 03:00:38;;;;;;;5.25;2.78;;;;;;;15.53;61.50;101122.34;4827713;28;120074;-72
2021/08/04 03:03:05;;;;;;;4.82;2.97;;;;;;;15.55;61.36;101130.19;4811680;28;119538;-72
2021/08/04 03:05:30;;;;;;;4.00;2.75;;;;;;;15.52;60.98;101131.88;4812947;28;119869;-72
2021/08/04 03:07:56;;;;;;;5.22;3.20;;;;;;;15.50;60.71;101128.84;4813996;28;119996;-72
2021/08/04 03:10:22;;;;;;;5.78;3.58;;;;;;;15.45;61.05;101125.97;4833519;28;120277;-72
2021/08/04 03:12:47;;;;;;;5.07;3.33;;;;;;;15.44;61.24;101129.97;4818044;29;119327;-72
2021/08/04 03:15:13;;;;;;;6.97;3.13;;;;;;;15.40;61.12;101124.63;4797602;29;123727;-72
2021/08/04 03:17:39;;;;;;;4.15;3.17;;;;;;;15.40;61.09;101123.88;4799665;28;120020;-72
2021/08/04 03:20:05;;;;;;;4.80;2.90;;;;;;;15.39;61.21;101125.09;4813992;28;120263;-71
2021/08/04 03:22:31;;;;;;;9.27;3.60;;;;;;;15.39;61.46;101138.94;4815209;29;119602;-72
2021/08/04 03:24:59;;;;;;;4.32;3.33;;;;;;;15.38;60.99;101129.09;4800052;28;119993;-72
2021/08/04 03:27:24;;;;;;;5.32;2.95;;;;;;;15.39;61.60;101133.41;4814067;29;120201;-72
2021/08/04 03:29:50;;;;;;;4.07;3.10;;;;;;;15.38;61.37;101123.56;4829543;28;119664;-72
2021/08/04 03:32:18;;;;;;;4.82;3.35;;;;;;;15.34;61.25;101121.72;4830095;28;124408;-72
2021/08/04 03:34:44;;;;;;;4.97;3.30;;;;;;;15.36;60.69;101118.50;4817209;29;119387;-72
2021/08/04 03:37:09;;;;;;;5.43;3.00;;;;;;;15.32;60.33;101115.91;4828960;28;120732;-72
2021/08/04 03:39:38;;;;;;;5.20;3.00;;;;;;;15.28;60.57;101123.63;4813687;29;119863;-72
2021/08/04 03:42:03;;;;;;;5.30;3.30;;;;;;;15.21;60.78;101115.72;4829523;28;121786;-72
2021/08/04 03:44:29;;;;;;;4.03;3.05;;;;;;;15.20;60.42;101116.94;4800216;28;121606;-72
2021/08/04 03:46:55;;;;;;;4.05;2.95;;;;;;;15.21;61.06;101117.72;4813947;29;121070;-72
2021/08/04 03:49:25;;;;;;;5.68;2.95;;;;;;;15.19;60.98;101129.25;4798721;28;119992;-72
2021/08/04 03:51:51;;;;;;;4.32;3.45;;;;;;;15.16;61.26;101121.91;4813703;29;120036;-72
2021/08/04 03:54:19;;;;;;;5.28;3.15;;;;;;;15.18;61.66;101118.66;4813494;29;124550;-72
2021/08/04 03:56:45;;;;;;;5.43;3.30;;;;;;;15.17;61.21;101128.94;4802226;28;121471;-72
2021/08/04 03:59:11;;;;;;;5.45;3.40;;;;;;;15.16;61.19;101126.66;4798517;28;119415;-72
2021/08/04 04:01:39;;;;;;;5.68;2.85;;;;;;;15.16;61.52;101130.19;4813215;28;120170;-72
2021/08/04 04:04:04;;;;;;;5.13;3.28;;;;;;;15.13;61.83;101122.03;4830391;28;119988;-71
2021/08/04 04:06:30;;;;;;;4.13;2.92;;;;;;;15.16;61.38;101132.94;4829136;28;119691;-72
2021/08/04 04:08:56;;;;;;;5.68;2.83;;;;;;;15.18;61.72;101132.47;4783121;28;119640;-72
2021/08/04 04:11:24;;;;;;;4.72;2.97;;;;;;;15.20;61.43;101138.28;4813780;28;120905;-72
2021/08/04 04:13:52;;;;;;;6.97;3.15;;;;;;;15.20;61.81;101136.28;4812986;28;119428;-72
2021/08/04 04:16:17;;;;;;;5.82;3.30;;;;;;;15.19;61.82;101140.28;4817061;29;121298;-72
2021/08/04 04:18:43;;;;;;;3.95;3.00;;;;;;;15.22;62.06;101147.63;4794117;29;123033;-73
2021/08/04 04:21:11;;;;;;;4.57;2.70;;;;;;;15.24;61.74;101147.91;4813108;28;120319;-72
2021/08/04 04:23:39;;;;;;;4.85;3.53;;;;;;;15.24;62.21;101142.41;4830368;28;119627;-72
2021/08/04 04:26:05;;;;;;;6.43;2.78;;;;;;;15.28;62.27;101150.50;4800410;28;121114;-72
2021/08/04 04:28:33;;;;;;;7.72;3.10;;;;;;;15.30;62.27;101150.78;4800578;28;119543;-72
2021/08/04 04:30:59;;;;;;;4.78;2.97;;;;;;;15.34;62.48;101151.38;4812262;28;119585;-72
2021/08/04 04:33:24;;;;;;;6.95;2.42;;;;;;;15.34;62.01;101145.84;4822736;28;120673;-72
2021/08/04 04:35:50;;;;;;;5.57;2.40;;;;;;;15.36;61.52;101146.13;4832041;28;121668;-72
2021/08/04 04:38:16;;;;;;;2.90;2.13;;;;;;;15.36;61.66;101155.19;4835897;28;120036;-72
2021/08/04 04:40:42;;;;;;;4.50;2.22;;;;;;;15.34;61.55;101146.63;4815397;29;119749;-72
2021/08/04 04:43:07;;;;;;;3.65;2.45;;;;;;;15.37;61.70;101147.66;4816971;28;120587;-72
2021/08/04 04:45:39;;;;;;;3.25;2.15;;;;;;;15.43;62.37;101147.78;4834280;28;119955;-72
2021/08/04 04:48:07;;;;;;;3.33;2.17;;;;;;;15.47;62.38;101159.44;4830955;28;119565;-72
2021/08/04 04:50:34;;;;;;;3.55;2.60;;;;;;;15.57;62.69;101161.63;4817878;29;119804;-72
2021/08/04 04:53:00;;;;;;;7.65;2.35;;;;;;;15.59;62.74;101153.66;4828072;28;119914;-72
2021/08/04 04:55:26;;;;;;;5.20;2.75;;;;;;;15.67;62.69;101162.38;4811613;28;120312;-72
2021/08/04 04:57:52;;;;;;;4.55;2.83;;;;;;;15.71;62.85;101153.91;4817071;29;119519;-72
2021/08/04 05:00:17;;;;;;;5.80;3.10;;;;;;;15.79;62.62;101169.63;4835120;28;120228;-72
2021/08/04 05:02:43;;;;;;;7.15;3.05;;;;;;;15.83;62.93;101170.22;4813419;29;120668;-72
2021/08/04 05:05:11;;;;;;;3.60;2.70;;;;;;;15.90;62.93;101167.09;4831447;28;119446;-72
2021/08/04 05:07:37;;;;;;;3.72;2.45;;;;;;;15.97;62.82;101174.25;4832256;28;119421;-72
2021/08/04 05:10:03;;;;;;;4.93;2.90;;;;;;;16.04;63.18;101173.09;4815990;28;121225;-72
2021/08/04 05:12:29;;;;;;;6.63;3.13;;;;;;;16.10;63.31;101168.44;4830087;28;119548;-72
2021/08/04 05:14:55;;;;;;;5.95;2.92;;;;;;;16.17;63.67;101168.06;4785308;29;119666;-72
2021/08/04 05:17:20;;;;;;;4.95;2.90;;;;;;;16.25;63.58;101180.25;4828547;28;121010;-72
2021/08/04 05:19:46;;;;;;;7.07;2.95;;;;;;;16.30;63.54;101173.28;4784848;28;119572;-72
2021/08/04 05:22:15;;;;;;;3.47;2.70;;;;;;;16.34;64.01;101180.19;4819453;28;119813;-72
2021/08/04 05:24:41;;;;;;;5.05;3.63;;;;;;;16.41;64.16;101179.78;4817485;28;122150;-72
2021/08/04 05:27:07;;;;;;;3.85;3.20;;;;;;;16.48;64.34;101176.63;4798974;28;119666;-72
2021/08/04 05:29:32;;;;;;;4.90;3.50;;;;;;;16.54;64.59;101180.22;4816023;29;119643;-72
2021/08/04 05:32:00;;;;;;;6.05;3.65;;;;;;;16.66;64.59;101185.97;4831724;28;123836;-72
2021/08/04 05:34:26;;;;;;;5.68;3.70;;;;;;;16.72;64.62;101189.59;4832761;28;126270;-72
2021/08/04 05:36:52;;;;;;;6.75;3.65;;;;;;;16.76;64.86;101182.63;4800075;28;120930;-72
2021/08/04 05:39:17;;;;;;;8.50;4.40;;;;;;;16.88;64.90;101189.09;4816963;28;120666;-72
2021/08/04 05:41:44;;;;;;;7.97;3.97;;;;;;;16.91;65.33;101187.38;4815131;29;120853;-72
2021/08/04 05:44:12;;;;;;;7.40;4.22;;;;;;;17.03;65.38;101189.81;4833533;28;119736;-72
2021/08/04 05:46:38;;;;;;;7.80;4.43;;;;;;;17.11;65.72;101192.94;4784775;28;119914;-72
2021/08/04 05:49:06;;;;;;;8.13;4.35;;;;;;;17.21;65.73;101193.56;4830631;28;124163;-72
2021/08/04 05:51:31;;;;;;;8.73;4.22;;;;;;;17.31;65.92;101192.22;4811787;28;120108;-71
2021/08/04 05:53:57;;;;;;;7.18;4.40;;;;;;;17.36;65.93;101191.50;4815258;28;119611;-72
2021/08/04 05:56:22;;;;;;;7.60;4.30;;;;;;;17.47;66.08;101200.72;4812842;29;119516;-71
2021/08/04 05:58:48;;;;;;;6.50;3.78;;;;;;;17.55;66.04;101194.78;4828372;28;120281;-71
2021/08/04 06:01:16;;;;;;;9.18;4.25;;;;;;;17.65;66.33;101202.44;4813937;29;120268;-72
2021/08/04 06:03:41;;;;;;;8.85;4.95;;;;;;;17.73;66.00;101200.81;4814924;29;120211;-72
2021/08/04 06:06:09;;;;;;;8.52;3.88;;;;;;;17.83;66.19;101206.22;4818727;29;119605;-72
2021/08/04 06:08:36;;;;;;;8.48;4.50;;;;;;;17.92;65.89;101203.28;4797439;28;119617;-72
2021/08/04 06:11:01;;;;;;;9.35;3.78;;;;;;;17.98;65.75;101201.31;4828553;28;127355;-72
2021/08/04 06:13:27;;;;;;;8.63;3.70;;;;;;;18.09;65.60;101201.44;4814077;28;120095;-72
2021/08/04 06:15:53;;;;;;;7.72;3.47;;;;;;;18.17;65.36;101196.97;4828951;28;119669;-72
2021/08/04 06:18:19;;;;;;;8.35;3.72;;;;;;;18.18;65.19;101190.16;4863066;23;120041;-93
2021/08/04 06:20:45;;;;;;;3.97;2.85;;;;;;;18.32;65.29;101197.63;4856631;28;120126;-93
2021/08/04 06:23:11;;;;;;;8.23;3.63;;;;;;;18.42;65.05;101206.53;4845421;28;121335;-93
2021/08/04 06:25:36;;;;;;;9.68;3.63;;;;;;;18.41;65.13;101191.88;4844332;28;123352;-93
2021/08/04 06:28:02;;;;;;;8.20;3.70;;;;;;;18.57;64.89;101212.72;4838173;28;122240;-93
2021/08/04 06:30:29;;;;;;;7.75;3.30;;;;;;;18.64;64.81;101205.97;4829917;28;122106;-92
2021/08/04 06:32:55;;;;;;;9.07;3.47;;;;;;;18.66;64.60;101211.78;4842403;28;119709;-91
2021/08/04 06:35:20;;;;;;;6.05;3.40;;;;;;;18.54;64.14;101168.50;4832205;28;119627;-92
2021/08/04 06:37:46;;;;;;;7.53;2.88;;;;;;;18.42;64.21;101150.97;4830492;28;123213;-92
2021/08/04 06:40:12;;;;;;;7.38;3.22;;;;;;;18.80;64.22;101196.25;4840333;28;119565;-92
2021/08/04 06:42:38;;;;;;;8.05;2.92;;;;;;;18.81;64.08;101192.22;4835054;28;120528;-93
2021/08/04 06:45:04;;;;;;;10.15;3.20;;;;;;;18.93;63.91;101197.34;4831819;28;122111;-93
2021/08/04 06:47:30;;;;;;;6.63;2.55;;;;;;;19.03;63.45;101206.25;4839840;28;119817;-92
2021/08/04 06:49:55;;;;;;;9.88;2.70;;;;;;;18.83;62.73;101168.22;4835777;28;122965;-92
2021/08/04 06:52:21;;;;;;;4.80;2.38;;;;;;;18.61;62.37;101131.91;4836951;28;119393;-93
2021/08/04 06:54:46;;;;;;;6.50;2.53;;;;;;;18.87;62.25;101160.41;4822281;28;120869;-93
2021/08/04 06:57:12;;;;;;;5.28;2.45;;;;;;;19.14;62.59;101202.75;4833717;28;122090;-93
2021/08/04 06:59:37;;;;;;;4.00;2.33;;;;;;;19.16;62.19;101191.91;4839722;28;119657;-92
2021/08/04 07:02:04;;;;;;;4.93;2.30;;;;;;;19.25;61.96;101202.84;4840479;28;120639;-92
2021/08/04 07:04:29;;;;;;;7.22;2.17;;;;;;;19.25;61.81;101197.28;4832962;28;121953;-93
2021/08/04 07:06:58;;;;;;;6.10;2.33;;;;;;;19.32;62.37;101203.13;4843933;28;120266;-93
2021/08/04 07:09:24;;;;;;;4.20;1.95;;;;;;;19.27;61.71;101189.94;4835543;28;120957;-92
2021/08/04 07:11:50;;;;;;;4.85;1.92;;;;;;;19.43;60.99;101199.63;4826770;28;119283;-92
2021/08/04 07:14:19;;;;;;;4.03;1.92;;;;;;;19.38;61.48;101191.25;4840181;28;121111;-92
2021/08/04 07:16:48;;;;;;;6.10;2.03;;;;;;;19.27;60.78;101166.94;4841393;28;122446;-92
2021/08/04 07:19:15;;;;;;;5.60;2.42;;;;;;;19.52;61.08;101204.22;4836210;28;119782;-92
2021/08/04 07:21:41;;;;;;;4.95;2.17;;;;;;;19.55;60.76;101209.56;4843180;28;121109;-92
2021/08/04 07:24:07;;;;;;;4.32;1.73;;;;;;;19.60;60.42;101211.59;4834627;28;123795;-92
2021/08/04 07:26:35;;;;;;;4.03;1.95;;;;;;;19.30;60.41;101157.59;4838618;28;119684;-90
2021/08/04 07:29:01;;;;;;;2.70;1.83;;;;;;;19.45;60.22;101179.66;4827431;28;121100;-92
2021/08/04 07:31:27;;;;;;;3.08;1.70;;;;;;;19.47;60.93;101177.91;4838959;28;123769;-93
2021/08/04 07:33:52;;;;;;;4.63;1.95;;;;;;;19.56;59.82;101188.06;4832036;28;121481;-92
2021/08/04 07:36:18;;;;;;;2.80;1.80;;;;;;;19.74;58.39;101223.81;4830489;28;122210;-92
2021/08/04 07:38:44;;;;;;;8.73;1.88;;;;;;;19.47;58.60;101180.69;4824756;28;120461;-93
2021/08/04 07:41:10;;;;;;;2.33;1.40;;;;;;;19.58;58.80;101182.75;4852242;28;120036;-89
2021/08/04 07:43:36;;;;;;;2.50;1.48;;;;;;;19.55;58.69;101176.16;4818189;28;122667;-93
2021/08/04 07:46:02;;;;;;;5.60;1.80;;;;;;;19.89;58.30;101223.59;4837595;28;119814;-92
2021/08/04 07:48:28;;;;;;;3.88;1.85;;;;;;;19.69;58.67;101193.19;4813911;28;121274;-92
2021/08/04 07:50:55;;;;;;;2.20;1.75;;;;;;;20.01;58.59;101214.00;4826523;28;123104;-92
2021/08/04 07:53:21;;;;;;;5.55;2.22;;;;;;;19.86;58.99;101194.72;4865988;28;119522;-92
2021/08/04 07:55:49;;;;;;;2.75;1.80;;;;;;;19.94;58.60;101189.44;4841154;28;120358;-92
2021/08/04 07:58:15;;;;;;;3.22;1.70;;;;;;;19.95;55.47;101190.19;4866398;28;120672;-91
2021/08/04 08:00:40;;;;;;;2.80;1.73;;;;;;;20.26;55.82;101223.41;4837121;28;121155;-92
2021/08/04 08:03:06;;;;;;;4.63;1.80;;;;;;;20.39;55.34;101220.91;4837136;28;122290;-91
2021/08/04 08:05:32;;;;;;;4.03;1.90;;;;;;;20.53;55.01;101224.72;4825563;28;120539;-91
2021/08/04 08:08:03;;;;;;;3.45;1.70;;;;;;;20.35;54.92;101166.69;4856325;28;119992;-92
2021/08/04 08:10:30;;;;;;;3.95;1.73;;;;;;;20.79;54.03;101225.19;4856919;28;119500;-92
2021/08/04 08:12:59;;;;;;;5.35;2.10;;;;;;;20.47;54.75;101162.66;4833638;28;119803;-91
2021/08/04 08:15:25;;;;;;;4.28;1.67;;;;;;;20.52;55.61;101164.69;4832370;28;123375;-91
2021/08/04 08:17:51;;;;;;;3.40;1.85;;;;;;;20.90;56.00;101220.91;4824510;28;119842;-91
2021/08/04 08:20:19;;;;;;;3.42;1.40;;;;;;;20.48;54.23;101158.59;4834636;28;120868;-93
2021/08/04 08:22:45;;;;;;;4.88;1.83;;;;;;;20.60;53.49;101162.16;4839541;28;121976;-92
2021/08/04 08:25:13;;;;;;;2.67;1.67;;;;;;;21.07;53.14;101216.81;4836307;28;119695;-91
2021/08/04 08:27:39;;;;;;;3.65;1.63;;;;;;;21.12;52.28;101204.88;4832548;28;121557;-91
2021/08/04 08:30:09;;;;;;;1.80;1.33;;;;;;;21.21;51.01;101194.69;4842858;28;120844;-92
2021/08/04 08:32:34;;;;;;;2.30;1.50;;;;;;;21.00;48.71;101147.59;4875291;28;120189;-91
2021/08/04 08:35:00;;;;;;;3.63;1.75;;;;;;;21.12;50.76;101140.72;4838479;28;120394;-94
2021/08/04 08:37:26;;;;;;;4.40;1.90;;;;;;;21.22;50.52;101146.75;4837404;28;118984;-92
2021/08/04 08:39:53;;;;;;;3.67;1.60;;;;;;;21.72;49.29;101204.41;4839662;28;119980;-92
2021/08/04 08:42:19;;;;;;;5.20;1.77;;;;;;;21.74;49.12;101199.81;4833760;28;122681;-92
2021/08/04 08:44:48;;;;;;;2.00;1.45;;;;;;;21.84;48.95;101205.88;4839164;28;119778;-92
2021/08/04 08:47:14;;;;;;;2.60;1.30;;;;;;;21.95;49.68;101213.41;4846069;28;121079;-92
2021/08/04 08:49:42;;;;;;;2.65;1.60;;;;;;;21.84;50.47;101175.16;4838743;28;122619;-92
2021/08/04 08:52:08;;;;;;;2.53;1.60;;;;;;;21.78;47.27;101180.00;4851775;28;119831;-91
2021/08/04 08:54:37;;;;;;;2.00;1.48;;;;;;;21.94;47.34;101211.91;4835366;28;121247;-92
2021/08/04 08:57:03;;;;;;;1.88;1.42;;;;;;;21.64;47.23;101186.69;4850994;28;122382;-91
2021/08/04 08:59:29;;;;;;;2.75;1.35;;;;;;;21.55;46.50;101178.63;4835746;28;121331;-90
2021/08/04 09:01:57;;;;;;;2.88;1.67;;;;;;;21.55;47.19;101184.19;4861651;28;121462;-91
2021/08/04 09:04:23;;;;;;;2.92;1.50;;;;;;;21.44;47.52;101163.44;4836498;28;119883;-92
2021/08/04 09:06:54;;;;;;;2.40;1.63;;;;;;;21.36;48.45;101159.66;4832634;28;122436;-92
2021/08/04 09:09:28;;;;;;;2.88;1.80;;;;;;;21.64;48.47;101209.03;4835800;28;120746;-91
2021/08/04 09:12:10;;;;;;;3.67;1.63;;;;;;;21.50;46.48;101193.34;4853426;28;119705;-92
2021/08/04 09:14:38;;;;;;;2.58;1.73;;;;;;;21.26;47.59;101161.22;4836815;28;122308;-92
2021/08/04 09:17:13;;;;;;;2.28;1.42;;;;;;;21.59;49.06;101201.44;4815583;28;122582;-91
2021/08/04 09:19:53;;;;;;;1.92;1.38;;;;;;;21.61;50.30;101210.81;4843108;28;119554;-92
2021/08/04 09:22:24;;;;;;;2.85;1.70;;;;;;;21.60;49.73;101209.28;4835549;28;122581;-92
2021/08/04 09:25:04;;;;;;;2.30;1.65;;;;;;;21.64;49.21;101200.63;4835657;28;120468;-91
2021/08/04 09:27:38;;;;;;;1.77;1.60;;;;;;;21.73;48.57;101200.34;4822650;28;119854;-91
2021/08/04 09:30:14;;;;;;;2.67;1.45;;;;;;;21.77;47.93;101195.25;4837206;28;123922;-93
2021/08/04 09:32:40;;;;;;;2.45;1.55;;;;;;;21.58;46.98;101149.66;4812204;28;119972;-92
2021/08/04 09:35:10;;;;;;;2.35;1.35;;;;;;;21.82;47.63;101174.91;4830409;28;121220;-92
2021/08/04 09:37:35;;;;;;;1.52;1.30;;;;;;;21.60;46.56;101136.72;4824585;28;122524;-92
2021/08/04 09:40:03;;;;;;;3.22;1.67;;;;;;;21.76;46.58;101149.03;4843852;28;119883;-91
2021/08/04 09:42:46;;;;;;;2.15;1.40;;;;;;;22.14;46.76;101191.22;4839127;28;121419;-93
2021/08/04 09:45:13;;;;;;;2.88;1.83;;;;;;;22.17;46.83;101192.97;4823540;28;120282;-91
2021/08/04 09:48:03;;;;;;;2.15;1.42;;;;;;;22.27;47.74;101185.81;4825672;28;121271;-91
2021/08/04 09:50:50;;;;;;;3.05;1.30;;;;;;;22.41;46.57;101197.88;4852362;28;123292;-92
2021/08/04 09:53:23;;;;;;;4.32;1.60;;;;;;;22.49;46.51;101199.59;4823024;28;120082;-92
2021/08/04 09:56:14;;;;;;;1.92;1.42;;;;;;;22.62;46.73;101201.75;4821985;28;121544;-91
2021/08/04 09:58:44;;;;;;;2.17;1.75;;;;;;;22.70;48.48;101197.09;4817538;28;124092;-90
2021/08/04 10:01:13;;;;;;;3.38;1.50;;;;;;;22.82;46.48;101192.19;4839958;28;121094;-92
2021/08/04 10:04:00;;;;;;;2.13;1.40;;;;;;;22.72;45.76;101169.41;4844024;28;122483;-93
2021/08/04 10:06:27;;;;;;;2.40;1.23;;;;;;;22.89;45.46;101194.41;4851593;28;122973;-91
2021/08/04 10:08:53;;;;;;;2.10;1.48;;;;;;;22.90;46.89;101179.88;4834665;28;123263;-93
2021/08/04 10:11:19;;;;;;;4.53;1.58;;;;;;;23.07;47.51;101193.72;4847909;28;125457;-93
2021/08/04 10:13:47;;;;;;;2.33;1.63;;;;;;;23.00;45.46;101165.56;4844275;28;121155;-92
2021/08/04 10:16:14;;;;;;;2.60;1.50;;;;;;;22.89;43.91;101150.41;4834287;28;122985;-91
2021/08/04 10:18:45;;;;;;;2.83;1.50;;;;;;;23.16;44.81;101192.59;4843673;28;121958;-92
2021/08/04 10:21:12;;;;;;;3.33;1.83;;;;;;;23.05;43.68;101171.09;4855522;28;120739;-93
2021/08/04 10:23:40;;;;;;;2.25;1.55;;;;;;;23.14;44.35;101193.13;4831389;28;120853;-92
2021/08/04 10:26:11;;;;;;;3.30;1.83;;;;;;;23.14;44.04;101184.72;4837937;28;123367;-92
2021/08/04 10:28:37;;;;;;;3.28;1.70;;;;;;;23.18;44.64;101195.59;4855349;28;120836;-91
2021/08/04 10:31:03;;;;;;;3.72;1.58;;;;;;;23.06;44.42;101164.22;4856946;28;123984;-92
2021/08/04 10:33:30;;;;;;;1.83;1.42;;;;;;;23.04;44.44;101141.59;4837681;28;121461;-91
2021/08/04 10:36:07;;;;;;;2.75;1.70;;;;;;;23.39;45.19;101179.84;4830431;28;122834;-92
2021/08/04 10:38:37;;;;;;;3.42;1.92;;;;;;;23.50;45.22;101190.16;4843671;28;125307;-92
2021/08/04 10:41:20;;;;;;;3.08;1.65;;;;;;;23.51;44.42;101186.06;4839144;28;122354;-93
2021/08/04 10:43:52;;;;;;;3.03;1.83;;;;;;;23.44;44.27;101190.22;4865560;28;123318;-92
2021/08/04 10:46:26;;;;;;;3.53;1.88;;;;;;;23.30;44.52;101171.06;4842984;28;124245;-93
2021/08/04 10:48:52;;;;;;;3.50;1.75;;;;;;;22.96;44.40;101143.50;4860731;28;121149;-93
2021/08/04 10:51:19;;;;;;;3.90;1.85;;;;;;;22.92;44.93;101143.00;4833748;28;122632;-92
2021/08/04 10:54:03;;;;;;;3.42;1.67;;;;;;;23.14;45.48;101187.50;4842107;28;120427;-93
2021/08/04 10:56:32;;;;;;;2.60;1.60;;;;;;;23.06;44.04;101191.44;4850365;28;120607;-92
2021/08/04 10:59:25;;;;;;;2.35;1.58;;;;;;;23.03;45.91;101193.25;4836937;28;124394;-91
2021/08/04 11:02:14;;;;;;;2.60;1.50;;;;;;;22.95;44.55;101172.75;4818377;28;120930;-93
2021/08/04 11:04:43;;;;;;;4.38;1.60;;;;;;;22.90;44.03;101165.91;4838124;28;122112;-92
2021/08/04 11:07:10;;;;;;;4.47;1.52;;;;;;;23.06;45.97;101181.00;4847546;28;123647;-93
2021/08/04 11:09:38;;;;;;;2.25;1.75;;;;;;;22.91;45.30;101144.28;4817464;28;120777;-93
2021/08/04 11:12:05;;;;;;;3.95;1.80;;;;;;;22.88;45.15;101131.34;4835545;28;122351;-92
2021/08/04 11:14:37;;;;;;;3.50;1.50;;;;;;;23.20;44.95;101185.44;4834071;28;120948;-90
2021/08/04 11:17:04;;;;;;;3.15;1.48;;;;;;;22.77;45.97;101120.28;4832157;28;123383;-91
2021/08/04 11:19:35;;;;;;;3.08;1.95;;;;;;;22.79;45.35;101135.25;4821818;28;123102;-90
2021/08/04 11:22:22;;;;;;;2.83;1.80;;;;;;;23.04;45.88;101172.38;4833082;28;120466;-92
2021/08/04 11:24:56;;;;;;;3.92;1.60;;;;;;;22.87;45.72;101163.41;4824335;28;122208;-93
2021/08/04 11:27:30;;;;;;;4.65;1.90;;;;;;;22.92;44.36;101168.19;4851381;28;123713;-92
2021/08/04 11:29:57;;;;;;;2.85;1.60;;;;;;;22.93;46.21;101169.69;4814684;28;120312;-92
2021/08/04 11:32:32;;;;;;;3.08;1.65;;;;;;;22.90;46.71;101167.94;4828388;28;122060;-91
2021/08/04 11:34:58;;;;;;;3.58;1.70;;;;;;;22.66;45.22;101133.06;4825481;28;124266;-92